15°C
Porth, Newquay, Cornwall. UK  Tell A Friend
 Ad **Ad
Updated18/08/2017 05:45 
 


Nearby METAR Reports From


Metar Station     Metar Station     Metar Station     Metar Station     Metar Station
EGHQ Newquay     EGDR Culdrose (navy)     EGDX ST Athan raf     EGDY Yeovitilton (navy)     EGFF Cardiff
EGHH Bournemouth     EGBB Birmingham     EGKA Shoreham-By-Sea     EGOP Pembry Sands     EGTE Exeter Airport
EGGD Bristol     EGHE Scilly     EGJA Alderney     EGJB Guernsey     EGJJ Jersey
France       LFRC Cherbourg/Mauper     LFRB Brest/Guipavas     LFRO Lannion/Servel        
More Metars Here                                
EGHQ - Newquay, United Kingdom
Updated: 17/08/2017 21:20

NOT Current
Partly Cloudy
Partly Cloudy
 Wind from SSW
Wind: SSW 14 mph , 22 km/h, 12 kts
Temperature: 16°C
Dew Point: 14°C
Humidity: 88%
Barometer: 1012 hPa
Clouds: Partly Cloudy
Visibility: 6 miles , 10 km
Cloud details: Few Clouds 305 m
Partly Cloudy 610 m
2017/08/17 20:20 EGHQ 172020Z 21012KT 9999 FEW010 SCT020 16/14 Q1012
EGDR - Culdrose (navy), United Kingdom
Updated: 18/08/2017 04:50
Clear
Clear
 Wind from W
Wind: W 13 mph , 20 km/h, 11 kts
Temperature: 14°C
Dew Point: 12°C
Humidity: 88%
Barometer: 1012 hPa
Clouds: Clear
Visibility: 6 miles , 10 km
2017/08/18 03:50 EGDR 180350Z AUTO 27011KT 9999 // NCD 14/12 Q1012
 
EGHC - Lands End, United Kingdom
Updated: 17/08/2017 18:20

NOT Current
Partly Cloudy
Partly Cloudy
 Wind from SW
Wind: SW 14 mph , 22 km/h, 12 kts
Temperature: 16°C
Dew Point: 15°C
Humidity: 94%
Barometer: 1012 hPa
Clouds: Partly Cloudy
Visibility: 4 miles , 7 km
Cloud details: Few Clouds 122 m
Partly Cloudy 244 m
2017/08/17 17:20 EGHC 171720Z 23012KT 7000 FEW004 SCT008 16/15 Q1012
EGHE - Scilly Saint Mar, United Kingdom
Updated: 17/08/2017 17:50

NOT Current
Mostly Cloudy
Mostly Cloudy
 Wind from SW
Wind: SW 15 mph , 24 km/h, 13 kts
Temperature: 18°C
Dew Point: 16°C
Humidity: 88%
Barometer: 1012 hPa
Clouds: Mostly Cloudy
Visibility: 6 miles , 10 km
Cloud details: Few Clouds 183 m
Mostly Cloudy 366 m
2017/08/17 16:50 EGHE 171650Z 23013KT 9999 FEW006 BKN012 18/16 Q1012
 
EGTE - Exeter Airport, United Kingdom
Updated: 18/08/2017 05:20
Few Clouds
Few Clouds
 Wind from WSW
Wind: WSW 8 mph , 13 km/h, 7 kts
Temperature: 14°C
Dew Point: 11°C
Humidity: 82%
Barometer: 1010 hPa
Clouds: Few Clouds
Visibility: 6 miles , 10 km
Cloud details: Few Clouds 762 m
2017/08/18 04:20 EGTE 180420Z 24007KT 9999 FEW025 14/11 Q1010
EGOP - Pembry Sands, United Kingdom
Updated: 18/08/2017 04:50
Partly Cloudy
Partly Cloudy
 Wind from W
Wind: W 21 mph , 33 km/h, 18 kts
Temperature: 14°C
Dew Point: 12°C
Humidity: 88%
Barometer: 1009 hPa
Clouds: Partly Cloudy
Visibility: 6 miles , 10 km
Cloud details: Few Clouds 518 m
Partly Cloudy 2134 m
2017/08/18 03:50 EGOP 180350Z AUTO 28018KT 9999 // FEW017/// SCT070/// 14/12 Q1009
 
EGDX - St Athan Raf, United Kingdom
Updated: 18/08/2017 04:50
Few Clouds
Few Clouds
 Wind from W
Wind: W 14 mph , 22 km/h, 12 kts
Temperature: 15°C
Dew Point: 11°C
Humidity: 77%
Barometer: 1009 hPa
Clouds: Few Clouds
Visibility: 6 miles , 10 km
Cloud details: Few Clouds 579 m
2017/08/18 03:50 EGDX 180350Z AUTO 28012KT 9999 FEW019/// 15/11 Q1009 RERA
EGFF - Cardiff-Wales Ar, United Kingdom
Updated: 18/08/2017 05:20
Clear
Clear
 Wind from WNW
Wind: WNW 13 mph , 20 km/h, 11 kts
Temperature: 14°C
Dew Point: 11°C
Humidity: 82%
Barometer: 1009 hPa
Clouds: Clear
Visibility: 6 miles , 10 km
2017/08/18 04:20 EGFF 180420Z AUTO 30011KT 9999 NCD 14/11 Q1009
 
EGDY - Yeovilton (navy), United Kingdom
Updated: 18/08/2017 04:50
Mostly Cloudy
Mostly Cloudy
 Wind from SW
Wind: SW 7 mph , 11 km/h, 6 kts
Temperature: 15°C
Dew Point: 13°C
Humidity: 88%
Barometer: 1010 hPa
Clouds: Mostly Cloudy
Visibility: 6 miles , 10 km
Cloud details: Few Clouds 1524 m
Mostly Cloudy 3353 m
2017/08/18 03:50 EGDY 180350Z AUTO 22006KT 9999 FEW050/// BKN110/// 15/13 Q1010
EGGD - Bristol/Lulsgate, United Kingdom
Updated: 18/08/2017 05:20
Thunderstorm
Thunderstorm
 Wind from WSW
Wind: WSW 15 mph , 24 km/h, 13 kts
Temperature: 13°C
Dew Point: 13°C
Humidity: 100%
Barometer: 1009 hPa
Clouds: Thunderstorm
Visibility: 6 miles , 10 km
Cloud details: Partly Cloudy 274 m
Mostly Cloudy 457 m
2017/08/18 04:20 EGGD 180420Z AUTO 25013KT 9999 SCT009/// BKN015/// //////CB 13/13 Q1009 RERA
 
EGBB - Birmingham Airpo, United Kingdom
Updated: 18/08/2017 05:20
Mostly Cloudy
Mostly Cloudy
 Wind from SSW
Wind: SSW 7 mph , 11 km/h, 6 kts
Temperature: 14°C
Dew Point: 13°C
Humidity: 94%
Barometer: 1007 hPa
Clouds: Mostly Cloudy
Visibility: 6 miles , 10 km
Cloud details: Partly Cloudy 975 m
Mostly Cloudy 1158 m
2017/08/18 04:20 EGBB 180420Z 20006KT 170V240 9999 SCT032 BKN038 14/13 Q1007
EGHH - Bournemouth Airp, United Kingdom
Updated: 17/08/2017 23:20

NOT Current
Mostly Cloudy
Mostly Cloudy
 Wind from WSW
Wind: WSW 8 mph , 13 km/h, 7 kts
Temperature: 17°C
Dew Point: 15°C
Humidity: 88%
Barometer: 1012 hPa
Clouds: Mostly Cloudy
Visibility: 6 miles , 10 km
Cloud details: Mostly Cloudy 396 m
2017/08/17 22:20 EGHH 172220Z 24007KT 9999 BKN013 17/15 Q1012
 
EGKA - Shoreham-By-Sea, United Kingdom
Updated: 17/08/2017 19:50

NOT Current
Partly Cloudy
Partly Cloudy
 Wind from SW
Wind: SW 17 mph , 28 km/h, 15 kts
Temperature: 18°C
Dew Point: 16°C
Humidity: 88%
Barometer: 1013 hPa
Clouds: Partly Cloudy
Visibility: 6 miles , 10 km
Cloud details: Few Clouds 213 m
Partly Cloudy 732 m
2017/08/17 18:50 EGKA 171850Z 23015KT 9999 FEW007 SCT024 18/16 Q1013
EGJA - Alderney/Channel, United Kingdom
Updated: 17/08/2017 19:20

NOT Current
Clear
Clear
 Wind from WSW
Wind: WSW 9 mph , 15 km/h, 8 kts
Temperature: 17°C
Dew Point: 16°C
Humidity: 94%
Barometer: 1014 hPa
Summary: Clear
Visibility: greater than 7 miles , 10 km
2017/08/17 18:20 EGJA 171820Z 25008KT CAVOK 17/16 Q1014
 
EGJB - Guernsey Airport, United Kingdom
Updated: 18/08/2017 05:20
Few Clouds
Few Clouds
 Wind from WSW
Wind: WSW 17 mph , 28 km/h, 15 kts
Temperature: 16°C
Dew Point: 14°C
Humidity: 88%
Barometer: 1013 hPa
Clouds: Few Clouds
Visibility: 6 miles , 10 km
Cloud details: Few Clouds 183 m
2017/08/18 04:20 EGJB 180420Z 25015KT 9999 FEW006 16/14 Q1013
EGJJ - Jersey Airport, United Kingdom
Updated: 18/08/2017 05:20
Mostly Cloudy
Mostly Cloudy
 Wind from W
Wind: W 14 mph , 22 km/h, 12 kts
Temperature: 16°C
Dew Point: 15°C
Humidity: 94%
Barometer: 1013 hPa
Clouds: Mostly Cloudy
Visibility: 6 miles , 10 km
Cloud details: Few Clouds 213 m
Mostly Cloudy 305 m
2017/08/18 04:20 EGJJ 180420Z 28012KT 9999 FEW007 BKN010 16/15 Q1013 TEMPO SCT010
 
LFRC - Cherbourg/Mauper, France
Updated: 18/08/2017 05:30
Partly Cloudy
Partly Cloudy
 Wind from SW
Wind: SW 14 mph , 22 km/h, 12 kts
Temperature: 16°C
Dew Point: 14°C
Humidity: 88%
Barometer: 1013 hPa
Clouds: Partly Cloudy
Visibility: 6 miles , 10 km
Cloud details: Partly Cloudy 396 m
Partly Cloudy 579 m
2017/08/18 04:30 LFRC 180430Z AUTO 23012KT 190V250 9999 SCT013 SCT019 16/14 Q1013
LFRB - Brest/Guipavas, France
Updated: 18/08/2017 05:30
Mostly Cloudy
Mostly Cloudy
 Wind from W
Wind: W 8 mph , 13 km/h, 7 kts
Temperature: 16°C
Dew Point: 15°C
Humidity: 94%
Barometer: 1014 hPa
Clouds: Mostly Cloudy
Visibility: 4 miles , 6 km
Cloud details: Partly Cloudy 244 m
Mostly Cloudy 457 m
Mostly Cloudy 610 m
2017/08/18 04:30 LFRB 180430Z AUTO 26007KT 6000 SCT008 BKN015 BKN020 16/15 Q1014 NOSIG
 
LFRO - Lannion/Servel, France
Updated: 18/08/2017 05:30
Overcast
Overcast
 Wind from SW
Wind: SW 7 mph , 11 km/h, 6 kts
Temperature: 16°C
Dew Point: 14°C
Humidity: 88%
Barometer: 1014 hPa
Clouds: Overcast
Visibility: 6 miles , 10 km
Cloud details: Mostly Cloudy 396 m
Overcast 579 m
2017/08/18 04:30 LFRO 180430Z AUTO 22006KT 9999 BKN013 OVC019 16/14 Q1014

# Note Plymouth airport closed 23/12/2011

Metar, brief description

METAR is a format for reporting weather information. A METAR weather report is predominantly used by pilots in fulfillment of a part of a pre-flight weather briefing, and by meteorologists, who use aggregated METAR information to assist in weather forecasting.

Raw METAR is the most popular format in the world for the transmission of weather data. Each METAR report contains essential information about the current weather conditions: Temperature, Dew Point, Barometric Pressure, Wind Speed and Direction, Visibility, Clouds Cover, Current Weather (Rain, Thunderstorms, Hail, Snow and so on...), here is an example of a raw metar report for EGHQ (Newquay airport).
METAR not available